createdAt,value
2022-08-05T00:01:27.841Z,91.81
2022-08-05T00:08:00.589Z,93.21
2022-08-05T00:13:52.952Z,92.46
2022-08-05T00:20:02.149Z,93.35
2022-08-05T00:26:05.883Z,93.95
2022-08-05T00:32:14.941Z,94.71
2022-08-05T00:38:17.921Z,95.96
2022-08-05T00:44:31.624Z,97.59
2022-08-05T00:50:33.769Z,98.18
2022-08-05T00:56:36.225Z,98.18
2022-08-05T01:02:40.300Z,96.88
2022-08-05T01:08:44.203Z,98.21
2022-08-05T01:15:36.323Z,97.61
2022-08-05T01:22:47.593Z,99.35
2022-08-05T01:29:05.415Z,96.95
2022-08-05T01:35:52.038Z,96.16
2022-08-05T01:41:37.905Z,97.06
2022-08-05T01:47:49.168Z,95.79
2022-08-05T01:53:59.133Z,96.49
2022-08-05T02:00:12.458Z,96.70
2022-08-05T02:06:37.048Z,96.50
2022-08-05T02:12:51.058Z,97.74
2022-08-05T02:19:20.293Z,98.50
2022-08-05T02:25:49.753Z,99.73
2022-08-05T02:31:57.632Z,99.36
2022-08-05T02:38:02.285Z,100.00
2022-08-05T02:44:13.239Z,100.00
2022-08-05T02:50:18.162Z,100.00
2022-08-05T02:56:20.806Z,99.62
2022-08-05T03:02:31.706Z,100.00
2022-08-05T03:08:34.906Z,100.00
2022-08-05T03:14:45.762Z,100.00
2022-08-05T03:20:48.852Z,100.00
2022-08-05T03:26:51.077Z,100.00
2022-08-05T03:32:54.318Z,100.00
2022-08-05T03:38:56.690Z,100.00
2022-08-05T03:44:59.716Z,100.00
2022-08-05T03:52:38.511Z,100.00
2022-08-05T03:58:10.738Z,100.00
2022-08-05T04:04:15.391Z,100.00
2022-08-05T04:10:23.465Z,100.00
2022-08-05T04:16:32.573Z,100.00
2022-08-05T04:22:34.722Z,100.00
2022-08-05T04:28:36.839Z,100.00
2022-08-05T04:34:52.918Z,100.00
2022-08-05T04:40:59.689Z,100.00
2022-08-05T04:47:09.848Z,100.00
2022-08-05T04:53:15.477Z,100.00
2022-08-05T04:59:24.027Z,100.00
2022-08-05T05:06:39.034Z,100.00
2022-08-05T05:12:02.053Z,100.00
2022-08-05T05:18:05.903Z,100.00
2022-08-05T05:24:09.103Z,100.00
2022-08-05T05:30:15.373Z,100.00
2022-08-05T05:36:18.473Z,100.00
2022-08-05T05:42:21.828Z,100.00
2022-08-05T05:48:27.483Z,100.00
2022-08-05T05:54:50.247Z,100.00
2022-08-05T06:00:51.915Z,100.00
2022-08-05T06:06:53.933Z,100.00
2022-08-05T06:12:55.937Z,100.00
2022-08-05T06:19:01.037Z,100.00
2022-08-05T06:25:25.223Z,96.94
2022-08-05T06:31:30.484Z,98.11
2022-08-05T06:37:56.224Z,98.96
2022-08-05T06:44:00.167Z,99.59
2022-08-05T06:50:05.295Z,97.51
2022-08-05T06:56:11.669Z,92.11
2022-08-05T07:02:29.433Z,93.61
2022-08-05T07:08:31.456Z,92.68
2022-08-05T07:14:53.930Z,91.98
2022-08-05T07:20:56.147Z,91.23
2022-08-05T07:26:59.168Z,89.58
2022-08-05T07:33:05.328Z,88.49
2022-08-05T07:39:24.678Z,89.43
2022-08-05T07:45:58.172Z,84.72
2022-08-05T07:51:55.455Z,83.34
2022-08-05T07:58:03.189Z,84.16
2022-08-05T08:04:05.942Z,82.33
2022-08-05T08:10:10.080Z,75.50
2022-08-05T08:16:35.650Z,75.92
2022-08-05T08:22:34.112Z,74.81
2022-08-05T08:28:59.495Z,73.53
2022-08-05T08:34:58.158Z,75.79
2022-08-05T08:41:03.940Z,75.07
2022-08-05T08:47:48.137Z,73.51
2022-08-05T08:53:38.192Z,70.00
2022-08-05T08:59:48.978Z,66.33
2022-08-05T09:06:08.020Z,65.75
2022-08-05T09:12:20.513Z,67.86
2022-08-05T09:18:32.105Z,69.61
2022-08-05T09:24:37.396Z,64.42
2022-08-05T09:30:57.148Z,65.05
2022-08-05T09:36:59.725Z,63.38
2022-08-05T09:43:08.487Z,60.90
2022-08-05T09:49:54.804Z,59.34
2022-08-05T09:55:56.964Z,64.35
2022-08-05T10:02:00.958Z,64.04
2022-08-05T10:08:36.481Z,66.94
2022-08-05T10:14:32.199Z,72.09
2022-08-05T10:20:41.862Z,74.53
2022-08-05T10:26:51.835Z,76.46
2022-08-05T10:33:02.574Z,75.70
2022-08-05T10:39:15.222Z,72.41
2022-08-05T10:45:40.152Z,69.30
2022-08-05T10:52:02.607Z,68.38
2022-08-05T10:58:14.997Z,68.95
2022-08-05T11:04:23.357Z,68.92
2022-08-05T11:10:29.143Z,73.88
2022-08-05T11:16:47.555Z,74.04
2022-08-05T11:22:58.009Z,76.75
2022-08-05T11:29:13.499Z,79.62
2022-08-05T11:36:07.740Z,78.18
2022-08-05T11:42:10.941Z,81.12
2022-08-05T11:48:20.421Z,85.11
2022-08-05T11:54:38.043Z,89.15
2022-08-05T12:00:41.442Z,93.23
2022-08-05T12:06:49.016Z,95.41
2022-08-05T12:12:59.179Z,98.30
2022-08-05T12:19:03.598Z,97.20
2022-08-05T12:25:10.300Z,96.34
2022-08-05T12:31:23.468Z,97.28
2022-08-05T12:37:35.940Z,97.30
2022-08-05T12:44:03.759Z,91.10
2022-08-05T12:50:17.477Z,91.02
2022-08-05T12:56:34.649Z,90.90
2022-08-05T13:02:40.102Z,88.02
2022-08-05T13:08:51.406Z,87.34
2022-08-05T13:15:05.643Z,87.14
2022-08-05T13:21:10.205Z,85.55
2022-08-05T13:27:38.134Z,84.30
2022-08-05T13:34:21.228Z,83.00
2022-08-05T13:40:15.788Z,81.68
2022-08-05T13:46:35.806Z,81.89
2022-08-05T13:52:39.833Z,82.60
2022-08-05T13:58:43.222Z,83.81
2022-08-05T14:05:11.465Z,83.87
2022-08-05T14:11:21.023Z,86.31
2022-08-05T14:17:26.441Z,83.15
2022-08-05T14:23:36.326Z,82.00
2022-08-05T14:29:39.252Z,79.21
2022-08-05T14:35:51.578Z,76.93
2022-08-05T14:42:19.279Z,76.78
2022-08-05T14:48:32.669Z,76.02
2022-08-05T14:54:36.138Z,75.75
2022-08-05T15:00:58.256Z,74.08
2022-08-05T15:07:01.891Z,73.74
2022-08-05T15:13:05.423Z,73.30
2022-08-05T15:19:23.609Z,72.02
2022-08-05T15:25:41.235Z,73.73
2022-08-05T15:31:52.870Z,73.03
2022-08-05T15:38:33.390Z,73.17
2022-08-05T15:44:17.405Z,72.72
2022-08-05T15:50:19.914Z,69.46
2022-08-05T15:56:27.139Z,66.43
2022-08-05T16:02:33.206Z,67.38
2022-08-05T16:08:36.074Z,61.48
2022-08-05T16:14:38.215Z,53.20
2022-08-05T16:20:40.198Z,52.02
2022-08-05T16:26:57.700Z,47.66
2022-08-05T16:33:01.073Z,52.26
2022-08-05T16:39:03.625Z,55.25
2022-08-05T16:46:03.929Z,53.37
2022-08-05T16:51:30.850Z,50.85
2022-08-05T16:57:59.851Z,47.77
2022-08-05T17:04:02.900Z,45.42
2022-08-05T17:10:05.367Z,47.32
2022-08-05T17:16:28.076Z,47.04
2022-08-05T17:22:30.272Z,45.95
2022-08-05T17:28:32.489Z,46.02
2022-08-05T17:34:34.887Z,43.72
2022-08-05T17:40:37.205Z,44.48
2022-08-05T17:46:42.046Z,42.62
2022-08-05T17:52:52.987Z,41.73
2022-08-05T17:58:57.030Z,44.68
2022-08-05T18:05:02.861Z,47.07
2022-08-05T18:11:08.464Z,49.93
2022-08-05T18:17:59.492Z,55.11
2022-08-05T18:23:45.822Z,59.28
2022-08-05T18:29:54.061Z,61.62
2022-08-05T18:36:04.894Z,62.13
2022-08-05T18:42:11.394Z,64.43
2022-08-05T18:48:30.636Z,66.00
2022-08-05T18:54:33.700Z,68.49
2022-08-05T19:00:36.457Z,69.72
2022-08-05T19:06:45.221Z,71.33
2022-08-05T19:12:48.378Z,72.52
2022-08-05T19:18:50.382Z,72.60
2022-08-05T19:24:54.147Z,72.77
2022-08-05T19:30:58.427Z,73.07
2022-08-05T19:37:00.779Z,74.28
2022-08-05T19:43:05.358Z,74.69
2022-08-05T19:49:12.530Z,74.50
2022-08-05T19:56:14.124Z,73.46
2022-08-05T20:01:40.792Z,73.30
2022-08-05T20:07:48.215Z,70.93
2022-08-05T20:13:58.883Z,69.70
2022-08-05T20:20:14.518Z,69.07
2022-08-05T20:26:17.440Z,66.93
2022-08-05T20:32:19.878Z,66.89
2022-08-05T20:38:27.321Z,65.27
2022-08-05T20:44:31.220Z,65.65
2022-08-05T20:50:33.527Z,66.25
2022-08-05T20:56:41.642Z,65.55
2022-08-05T21:02:51.639Z,65.01
2022-08-05T21:08:54.188Z,65.55
2022-08-05T21:14:56.139Z,65.99
2022-08-05T21:21:00.717Z,65.82
2022-08-05T21:27:02.718Z,65.94
2022-08-05T21:33:07.261Z,65.57
2022-08-05T21:39:14.263Z,66.15
2022-08-05T21:45:24.718Z,66.86
2022-08-05T21:52:22.082Z,66.90
2022-08-05T21:57:50.505Z,66.52
2022-08-05T22:03:55.494Z,67.96
2022-08-05T22:09:58.249Z,67.10
2022-08-05T22:16:05.105Z,69.66
2022-08-05T22:22:09.855Z,70.42
2022-08-05T22:28:12.210Z,71.76
2022-08-05T22:34:25.570Z,72.11
2022-08-05T22:40:31.142Z,72.45
2022-08-05T22:46:33.317Z,73.36
2022-08-05T22:52:35.922Z,73.19
2022-08-05T22:58:38.189Z,73.44
2022-08-05T23:04:52.057Z,74.81
2022-08-05T23:10:56.100Z,75.94
2022-08-05T23:17:16.979Z,76.22
2022-08-05T23:23:26.100Z,77.14
2022-08-05T23:29:34.455Z,77.93
2022-08-05T23:35:36.841Z,78.88
2022-08-05T23:41:40.916Z,79.86
2022-08-05T23:47:47.729Z,80.09
2022-08-05T23:53:50.186Z,79.91
